Time;durP1;ratioP1;P1;durP2;ratioP2;P2;SDS_P1;SDS_P2;PMS_P1;PMS_P2;Temp;Humidity;BMP_temperature;BMP_pressure;BME280_temperature;BME280_humidity;BME280_pressure;Samples;Min_cycle;Max_cycle;Signal;HPM_P1;HPM_P2
2021/08/24 00:01:49;;;;;;;3.90;1.65;;;16.60;95.30;;;;;;5050815;28;20029;-77
2021/08/24 00:04:14;;;;;;;3.03;1.70;;;16.60;95.40;;;;;;5030374;28;20017;-75
2021/08/24 00:06:40;;;;;;;2.42;1.60;;;16.60;95.40;;;;;;5034825;28;20400;-75
2021/08/24 00:09:05;;;;;;;3.42;1.77;;;16.50;95.40;;;;;;5042673;28;20021;-76
2021/08/24 00:11:33;;;;;;;4.88;1.95;;;16.40;95.50;;;;;;5050951;28;20059;-78
2021/08/24 00:14:01;;;;;;;3.63;1.42;;;16.40;95.60;;;;;;5047619;28;20506;-76
2021/08/24 00:16:26;;;;;;;4.53;1.88;;;16.40;95.70;;;;;;5049158;28;20025;-78
2021/08/24 00:19:19;;;;;;;4.35;1.80;;;16.30;95.80;;;;;;5049972;28;20509;-77
2021/08/24 00:21:45;;;;;;;3.42;1.75;;;16.30;95.80;;;;;;5051619;28;20028;-79
2021/08/24 00:24:12;;;;;;;2.45;1.40;;;16.20;96.00;;;;;;5038882;28;20033;-78
2021/08/24 00:26:38;;;;;;;10.02;2.30;;;16.10;96.10;;;;;;5051993;28;20384;-75
2021/08/24 00:29:04;;;;;;;4.90;1.83;;;16.10;96.20;;;;;;5053239;28;20488;-77
2021/08/24 00:31:29;;;;;;;4.28;1.52;;;16.10;96.20;;;;;;5040816;28;20117;-75
2021/08/24 00:33:55;;;;;;;4.25;2.00;;;16.00;96.40;;;;;;5037375;28;20028;-75
2021/08/24 00:36:21;;;;;;;3.15;1.75;;;15.90;96.50;;;;;;5043214;28;20393;-76
2021/08/24 00:38:48;;;;;;;5.40;1.90;;;15.90;96.60;;;;;;5047697;28;20029;-77
2021/08/24 00:41:15;;;;;;;3.70;1.70;;;15.80;96.70;;;;;;5044084;28;20079;-77
2021/08/24 00:43:42;;;;;;;4.75;2.10;;;15.80;96.70;;;;;;5035303;28;20079;-76
2021/08/24 00:46:31;;;;;;;3.05;1.65;;;15.80;96.80;;;;;;5022006;28;20033;-78
2021/08/24 00:49:04;;;;;;;3.42;1.50;;;15.80;97.00;;;;;;5039392;28;20084;-75
2021/08/24 00:51:34;;;;;;;5.43;1.95;;;15.70;97.00;;;;;;5054199;28;20057;-76
2021/08/24 00:54:00;;;;;;;4.63;2.28;;;15.70;97.10;;;;;;5048797;28;20029;-76
2021/08/24 00:56:26;;;;;;;5.38;1.70;;;15.70;97.10;;;;;;5030754;28;20023;-74
2021/08/24 00:58:51;;;;;;;3.10;1.55;;;15.70;97.30;;;;;;5065559;28;20036;-76
2021/08/24 01:01:17;;;;;;;3.45;1.60;;;15.60;97.40;;;;;;5034747;28;20072;-76
2021/08/24 01:03:46;;;;;;;2.72;1.60;;;15.60;97.40;;;;;;5035205;28;20052;-76
2021/08/24 01:06:25;;;;;;;2.65;1.55;;;15.50;97.50;;;;;;5038008;28;20393;-77
2021/08/24 01:09:02;;;;;;;3.42;1.83;;;15.50;97.60;;;;;;5052824;28;20059;-77
2021/08/24 01:11:49;;;;;;;4.95;2.13;;;15.50;97.70;;;;;;5054452;28;20362;-78
2021/08/24 01:14:29;;;;;;;4.43;1.80;;;15.40;97.70;;;;;;5035381;28;20057;-75
2021/08/24 01:17:08;;;;;;;4.38;1.70;;;15.40;97.80;;;;;;5054508;28;20047;-79
2021/08/24 01:20:06;;;;;;;4.25;1.88;;;15.40;97.80;;;;;;5050949;28;20098;-78
2021/08/24 01:22:50;;;;;;;3.45;1.67;;;15.30;98.00;;;;;;5045104;28;20053;-77
2021/08/24 01:25:56;;;;;;;3.13;1.77;;;15.30;98.00;;;;;;5047971;28;20036;-77
2021/08/24 01:28:50;;;;;;;4.18;1.98;;;15.30;98.10;;;;;;5052920;28;20033;-77
2021/08/24 01:31:56;;;;;;;5.50;1.95;;;15.20;98.10;;;;;;5016341;28;20069;-75
2021/08/24 01:34:44;;;;;;;4.18;1.70;;;15.20;98.40;;;;;;5036681;28;20672;-76
2021/08/24 01:37:22;;;;;;;4.75;2.00;;;15.20;98.20;;;;;;5052624;28;20039;-76
2021/08/24 01:39:54;;;;;;;4.93;1.85;;;15.10;98.30;;;;;;5050259;28;20536;-76
2021/08/24 01:42:27;;;;;;;3.75;1.98;;;15.10;98.40;;;;;;5035743;28;20025;-77
2021/08/24 01:44:52;;;;;;;5.68;1.90;;;15.10;98.50;;;;;;5040633;28;20445;-76
2021/08/24 01:47:39;;;;;;;5.10;2.22;;;15.10;98.50;;;;;;5041209;28;20110;-74
2021/08/24 01:50:19;;;;;;;4.60;1.90;;;15.10;98.40;;;;;;5035226;28;20045;-77
2021/08/24 01:52:52;;;;;;;5.60;2.30;;;15.00;98.60;;;;;;5050932;28;20180;-75
2021/08/24 01:55:30;;;;;;;4.35;2.00;;;15.00;98.60;;;;;;5049262;28;20504;-76
2021/08/24 01:58:07;;;;;;;3.75;1.90;;;15.00;98.60;;;;;;5053358;28;20033;-76
2021/08/24 02:00:35;;;;;;;4.80;1.98;;;15.00;98.70;;;;;;5037027;28;20497;-75
2021/08/24 02:03:10;;;;;;;4.30;2.55;;;15.00;98.70;;;;;;5035172;28;20036;-76
2021/08/24 02:05:49;;;;;;;7.15;2.85;;;15.00;98.70;;;;;;5051875;28;20052;-76
2021/08/24 02:08:23;;;;;;;3.53;1.70;;;15.00;98.80;;;;;;5052209;28;20159;-75
2021/08/24 02:10:52;;;;;;;4.20;1.90;;;14.90;98.80;;;;;;5051321;28;20039;-76
2021/08/24 02:13:20;;;;;;;3.83;1.98;;;14.90;98.90;;;;;;5048122;28;20331;-75
2021/08/24 02:15:51;;;;;;;3.45;1.90;;;14.90;99.00;;;;;;5033421;28;20461;-76
2021/08/24 02:18:20;;;;;;;5.65;1.90;;;14.80;99.10;;;;;;5035917;28;20040;-75
2021/08/24 02:20:59;;;;;;;5.43;1.95;;;14.80;99.10;;;;;;5045848;28;20044;-76
2021/08/24 02:23:27;;;;;;;5.20;2.25;;;14.80;99.20;;;;;;5046188;28;20033;-76
2021/08/24 02:25:56;;;;;;;3.05;1.83;;;14.80;99.20;;;;;;5051657;28;20039;-76
2021/08/24 02:28:28;;;;;;;4.72;1.80;;;14.70;99.30;;;;;;5038486;28;20500;-75
2021/08/24 02:31:00;;;;;;;4.80;2.20;;;14.70;99.40;;;;;;5050865;28;20421;-75
2021/08/24 02:33:36;;;;;;;3.85;1.75;;;14.70;99.50;;;;;;5038138;28;20033;-76
2021/08/24 02:36:03;;;;;;;3.92;2.03;;;14.70;99.50;;;;;;5051336;28;20055;-78
2021/08/24 02:38:35;;;;;;;4.88;2.15;;;14.70;99.70;;;;;;5051077;28;20044;-76
2021/08/24 02:41:06;;;;;;;6.75;2.08;;;14.60;99.60;;;;;;5050574;28;20033;-76
2021/08/24 02:43:44;;;;;;;4.43;1.90;;;14.60;99.60;;;;;;5038204;28;20039;-75
2021/08/24 02:46:15;;;;;;;7.68;2.10;;;14.60;99.70;;;;;;5052100;28;20033;-75
2021/08/24 02:48:43;;;;;;;5.30;2.17;;;14.60;99.70;;;;;;5050759;28;20117;-74
2021/08/24 02:51:15;;;;;;;3.88;2.10;;;14.60;99.70;;;;;;5024229;28;20402;-75
2021/08/24 02:53:47;;;;;;;2.95;1.60;;;14.60;99.80;;;;;;5037143;28;20081;-74
2021/08/24 02:56:12;;;;;;;4.53;2.15;;;14.60;99.80;;;;;;5037603;28;20021;-76
2021/08/24 02:58:38;;;;;;;3.72;2.00;;;14.50;99.90;;;;;;5046216;28;20030;-76
2021/08/24 03:01:03;;;;;;;3.92;1.90;;;14.60;99.90;;;;;;5052125;28;20037;-76
2021/08/24 03:03:28;;;;;;;3.53;1.65;;;14.60;99.90;;;;;;5047184;28;20025;-76
2021/08/24 03:05:54;;;;;;;4.25;2.00;;;14.60;99.90;;;;;;5037273;28;20037;-75
2021/08/24 03:08:19;;;;;;;5.50;2.30;;;14.50;99.90;;;;;;5049620;28;20032;-76
2021/08/24 03:10:48;;;;;;;5.97;1.90;;;14.50;99.90;;;;;;5049536;28;20029;-76
2021/08/24 03:13:24;;;;;;;5.50;2.35;;;14.60;99.90;;;;;;5050706;28;20017;-76
2021/08/24 03:16:15;;;;;;;4.03;2.00;;;14.50;99.90;;;;;;5050922;28;20033;-77
2021/08/24 03:18:56;;;;;;;3.20;1.80;;;14.50;99.90;;;;;;5034206;28;20049;-76
2021/08/24 03:21:29;;;;;;;5.93;2.58;;;14.50;99.90;;;;;;5032053;28;20096;-76
2021/08/24 03:23:55;;;;;;;5.25;1.80;;;14.50;99.90;;;;;;5032659;28;20052;-75
2021/08/24 03:26:24;;;;;;;5.03;2.28;;;14.50;99.90;;;;;;5050772;28;20040;-76
2021/08/24 03:28:50;;;;;;;4.45;2.15;;;14.40;99.90;;;;;;5036050;28;20343;-77
2021/08/24 03:31:18;;;;;;;4.72;2.00;;;14.40;99.90;;;;;;5051472;28;20021;-74
2021/08/24 03:33:44;;;;;;;4.07;2.00;;;14.50;99.90;;;;;;5049947;28;20417;-75
2021/08/24 03:36:09;;;;;;;4.57;1.80;;;14.40;99.90;;;;;;5052094;28;20457;-77
2021/08/24 03:38:35;;;;;;;4.15;1.75;;;14.40;99.90;;;;;;5051131;28;20155;-77
2021/08/24 03:41:05;;;;;;;4.88;2.38;;;14.40;99.90;;;;;;5051631;28;20666;-75
2021/08/24 03:43:31;;;;;;;3.08;1.77;;;14.30;99.90;;;;;;5020120;28;20025;-76
2021/08/24 03:45:56;;;;;;;3.17;1.73;;;14.30;99.90;;;;;;5049642;28;20056;-78
2021/08/24 03:48:22;;;;;;;3.47;2.20;;;14.30;99.90;;;;;;5050839;28;20469;-76
2021/08/24 03:50:47;;;;;;;4.35;2.15;;;14.30;99.90;;;;;;5050700;28;20056;-77
2021/08/24 03:53:13;;;;;;;5.72;2.17;;;14.30;99.90;;;;;;5050627;28;20167;-78
2021/08/24 03:55:38;;;;;;;6.18;2.90;;;14.30;99.90;;;;;;5037743;28;20044;-77
2021/08/24 03:58:06;;;;;;;3.75;2.13;;;14.30;99.90;;;;;;5051523;28;20108;-78
2021/08/24 04:00:31;;;;;;;4.97;2.60;;;14.20;99.90;;;;;;5049132;28;20037;-76
2021/08/24 04:02:57;;;;;;;5.70;2.42;;;14.30;99.90;;;;;;5035137;28;20548;-76
2021/08/24 04:05:22;;;;;;;4.68;1.75;;;14.30;99.90;;;;;;5053848;28;20037;-77
2021/08/24 04:07:48;;;;;;;3.13;1.75;;;14.20;99.90;;;;;;5055512;28;20021;-77
2021/08/24 04:10:13;;;;;;;7.43;1.90;;;14.20;99.90;;;;;;5054845;28;20037;-75
2021/08/24 04:12:39;;;;;;;4.75;1.90;;;14.20;99.90;;;;;;5054138;28;20017;-77
2021/08/24 04:15:09;;;;;;;3.45;1.67;;;14.20;99.90;;;;;;5042974;28;20462;-77
2021/08/24 04:17:35;;;;;;;4.90;2.40;;;14.20;99.90;;;;;;5035526;28;20025;-76
2021/08/24 04:20:00;;;;;;;6.47;2.55;;;14.20;99.90;;;;;;5046499;28;20602;-76
2021/08/24 04:22:26;;;;;;;5.20;2.38;;;14.20;99.90;;;;;;5039518;28;20022;-78
2021/08/24 04:24:51;;;;;;;4.38;1.95;;;14.30;99.90;;;;;;5044250;28;20033;-78
2021/08/24 04:27:17;;;;;;;6.07;2.83;;;14.30;99.90;;;;;;5047578;28;20036;-75
2021/08/24 04:29:43;;;;;;;4.35;1.83;;;14.30;99.90;;;;;;5049295;28;20017;-78
2021/08/24 04:32:11;;;;;;;6.20;2.55;;;14.30;99.90;;;;;;5047117;28;20033;-75
2021/08/24 04:34:36;;;;;;;5.13;2.45;;;14.30;99.90;;;;;;5054358;28;20048;-76
2021/08/24 04:37:02;;;;;;;4.60;2.08;;;14.30;99.90;;;;;;5043626;28;20126;-77
2021/08/24 04:39:28;;;;;;;4.45;2.05;;;14.40;99.90;;;;;;5041536;28;20557;-78
2021/08/24 04:41:53;;;;;;;4.53;2.17;;;14.40;99.90;;;;;;5045408;28;20429;-77
2021/08/24 04:44:19;;;;;;;4.13;2.08;;;14.40;99.90;;;;;;5047121;28;20116;-78
2021/08/24 04:46:44;;;;;;;4.65;2.17;;;14.40;99.90;;;;;;5054389;28;20033;-78
2021/08/24 04:49:10;;;;;;;7.57;2.45;;;14.40;99.90;;;;;;5041807;28;20032;-77
2021/08/24 04:51:36;;;;;;;5.85;2.13;;;14.40;99.90;;;;;;5048637;28;20041;-79
2021/08/24 04:54:01;;;;;;;6.22;2.30;;;14.40;99.90;;;;;;5037674;28;20017;-77
2021/08/24 04:56:26;;;;;;;3.28;2.00;;;14.40;99.90;;;;;;5046895;28;20036;-77
2021/08/24 04:58:52;;;;;;;3.22;2.10;;;14.40;99.90;;;;;;5051306;28;20124;-77
2021/08/24 05:01:17;;;;;;;8.15;2.20;;;14.40;99.90;;;;;;5054761;28;20481;-76
2021/08/24 05:03:43;;;;;;;5.40;2.25;;;14.40;99.90;;;;;;5052111;28;20021;-77
2021/08/24 05:06:09;;;;;;;5.00;2.20;;;14.40;99.90;;;;;;5054514;28;20425;-79
2021/08/24 05:08:34;;;;;;;9.70;2.92;;;14.40;99.90;;;;;;5046608;28;20048;-78
2021/08/24 05:11:00;;;;;;;3.72;1.92;;;14.40;99.90;;;;;;5035502;28;20043;-80
2021/08/24 05:13:25;;;;;;;3.42;2.03;;;14.50;99.90;;;;;;5047661;28;20022;-77
2021/08/24 05:15:51;;;;;;;4.70;2.30;;;14.50;99.90;;;;;;5046692;28;20125;-77
2021/08/24 05:18:16;;;;;;;5.13;2.30;;;14.50;99.90;;;;;;5034201;28;20060;-76
2021/08/24 05:20:42;;;;;;;4.78;2.20;;;14.50;99.90;;;;;;5047655;28;20037;-75
2021/08/24 05:23:07;;;;;;;5.22;2.47;;;14.50;99.90;;;;;;5033936;28;20029;-78
2021/08/24 05:25:33;;;;;;;5.68;2.20;;;14.60;99.90;;;;;;5048206;28;20112;-76
2021/08/24 05:27:58;;;;;;;4.10;1.90;;;14.60;99.90;;;;;;5033840;28;20030;-76
2021/08/24 05:30:26;;;;;;;4.63;2.10;;;14.60;99.90;;;;;;5047025;28;20070;-74
2021/08/24 05:32:53;;;;;;;4.80;2.05;;;14.70;99.90;;;;;;5053960;28;20025;-78
2021/08/24 05:35:19;;;;;;;6.65;2.45;;;14.70;99.90;;;;;;5052595;28;20025;-77
2021/08/24 05:37:45;;;;;;;4.13;2.10;;;14.70;99.90;;;;;;5054512;28;20517;-76
2021/08/24 05:40:11;;;;;;;4.55;2.63;;;14.80;99.90;;;;;;5041948;28;20138;-77
2021/08/24 05:42:37;;;;;;;6.32;3.10;;;14.80;99.90;;;;;;5034523;28;20025;-77
2021/08/24 05:45:05;;;;;;;5.53;2.50;;;14.90;99.90;;;;;;5044726;28;20036;-78
2021/08/24 05:47:31;;;;;;;3.72;2.63;;;14.90;99.90;;;;;;5055472;28;20047;-76
2021/08/24 05:49:58;;;;;;;4.53;2.20;;;14.90;99.90;;;;;;5053619;28;20477;-77
2021/08/24 05:52:23;;;;;;;6.40;2.60;;;15.00;99.90;;;;;;5054576;28;20056;-78
2021/08/24 05:54:50;;;;;;;5.20;2.53;;;15.00;99.90;;;;;;5051548;28;20052;-79
2021/08/24 05:57:20;;;;;;;5.03;2.95;;;15.10;99.90;;;;;;5038758;28;20030;-76
2021/08/24 05:59:46;;;;;;;5.55;2.25;;;15.20;99.90;;;;;;5036031;28;20037;-78
2021/08/24 06:02:11;;;;;;;5.03;2.20;;;15.20;99.90;;;;;;5053087;28;20029;-77
2021/08/24 06:04:37;;;;;;;4.47;2.22;;;15.30;99.90;;;;;;5053317;28;20079;-79
2021/08/24 06:07:03;;;;;;;4.88;2.33;;;15.40;99.80;;;;;;5055429;28;20683;-77
2021/08/24 06:09:29;;;;;;;5.63;2.28;;;15.40;99.70;;;;;;5034122;28;20078;-72
2021/08/24 06:11:54;;;;;;;5.05;2.20;;;15.50;99.60;;;;;;5050370;28;20051;-73
2021/08/24 06:14:22;;;;;;;3.35;1.67;;;15.50;99.40;;;;;;5051440;28;20037;-73
2021/08/24 06:16:54;;;;;;;5.30;1.90;;;15.60;99.40;;;;;;5042606;28;20037;-74
2021/08/24 06:19:21;;;;;;;2.97;1.50;;;15.60;99.30;;;;;;5054439;28;20044;-75
2021/08/24 06:21:47;;;;;;;3.17;1.83;;;15.70;99.20;;;;;;5054311;28;20033;-75
2021/08/24 06:24:12;;;;;;;3.28;1.65;;;15.70;99.00;;;;;;5058653;28;20025;-75
2021/08/24 06:26:38;;;;;;;3.55;1.70;;;15.70;99.00;;;;;;5058379;28;20040;-73
2021/08/24 06:29:05;;;;;;;4.65;2.30;;;15.70;98.80;;;;;;5052642;28;20009;-75
2021/08/24 06:31:32;;;;;;;3.67;1.80;;;15.70;98.70;;;;;;5053314;28;20025;-74
2021/08/24 06:33:59;;;;;;;5.32;2.13;;;15.70;98.70;;;;;;5057590;28;20025;-74
2021/08/24 06:36:25;;;;;;;3.92;1.75;;;15.80;98.80;;;;;;5058531;28;20057;-74
2021/08/24 06:38:51;;;;;;;3.45;2.00;;;15.90;98.80;;;;;;5047774;28;20025;-74
2021/08/24 06:41:18;;;;;;;4.07;2.10;;;15.90;98.60;;;;;;5046822;28;20048;-75
2021/08/24 06:43:44;;;;;;;3.58;1.55;;;15.90;98.60;;;;;;5050865;28;20013;-74
2021/08/24 06:46:10;;;;;;;4.15;1.75;;;16.00;98.60;;;;;;5046744;28;20030;-74
2021/08/24 06:48:35;;;;;;;3.42;1.70;;;16.00;98.40;;;;;;5049965;28;20364;-73
2021/08/24 06:51:02;;;;;;;4.82;2.10;;;16.10;98.50;;;;;;5046214;28;20044;-74
2021/08/24 06:53:27;;;;;;;3.22;1.65;;;16.20;98.30;;;;;;5039395;28;20033;-74
2021/08/24 06:55:53;;;;;;;2.28;1.38;;;16.20;98.30;;;;;;5050702;28;20021;-74
2021/08/24 06:58:19;;;;;;;4.57;1.70;;;16.30;98.30;;;;;;5052061;28;20087;-73
2021/08/24 07:00:47;;;;;;;5.10;2.08;;;16.30;97.90;;;;;;5027734;28;20132;-75
2021/08/24 07:03:13;;;;;;;3.08;1.60;;;16.40;97.90;;;;;;5043172;28;20470;-74
2021/08/24 07:05:42;;;;;;;3.38;2.03;;;16.40;97.90;;;;;;5046963;28;20045;-74
2021/08/24 07:08:08;;;;;;;4.63;1.52;;;16.50;97.90;;;;;;5050136;28;20021;-73
2021/08/24 07:10:34;;;;;;;3.70;1.60;;;16.50;97.80;;;;;;5048781;28;20044;-73
2021/08/24 07:12:59;;;;;;;6.32;1.67;;;16.60;97.40;;;;;;5048339;28;20390;-72
2021/08/24 07:15:25;;;;;;;3.97;1.67;;;16.60;97.40;;;;;;5044749;28;20037;-73
2021/08/24 07:17:54;;;;;;;4.85;1.98;;;16.70;97.30;;;;;;5040337;28;20025;-73
2021/08/24 07:20:20;;;;;;;3.58;1.83;;;16.80;97.20;;;;;;5043337;28;20037;-73
2021/08/24 07:22:47;;;;;;;3.97;1.55;;;16.80;96.90;;;;;;5044076;28;20021;-73
2021/08/24 07:25:15;;;;;;;4.47;1.90;;;16.90;96.60;;;;;;5037973;28;20043;-73
2021/08/24 07:27:40;;;;;;;3.35;1.52;;;16.90;96.40;;;;;;5044493;28;20107;-72
2021/08/24 07:30:07;;;;;;;3.92;1.65;;;17.00;96.50;;;;;;5047422;28;20036;-72
2021/08/24 07:32:33;;;;;;;2.50;1.60;;;17.10;96.50;;;;;;5044560;28;20044;-72
2021/08/24 07:34:58;;;;;;;4.70;1.67;;;17.10;96.20;;;;;;5046835;28;20703;-72
2021/08/24 07:37:23;;;;;;;5.35;1.60;;;17.20;96.20;;;;;;5047912;28;20035;-75
2021/08/24 07:39:49;;;;;;;4.90;2.08;;;17.20;96.20;;;;;;5049640;28;20033;-74
2021/08/24 07:42:15;;;;;;;3.20;1.42;;;17.30;96.00;;;;;;5042120;28;20022;-76
2021/08/24 07:44:40;;;;;;;6.72;1.90;;;17.40;96.10;;;;;;5046010;28;20470;-77
2021/08/24 07:47:06;;;;;;;4.28;1.60;;;17.50;95.80;;;;;;5040201;28;20031;-75
2021/08/24 07:49:34;;;;;;;3.45;1.67;;;17.50;95.60;;;;;;5046887;28;20040;-72
2021/08/24 07:52:08;;;;;;;2.92;1.40;;;17.50;95.30;;;;;;5050286;28;20132;-76
2021/08/24 07:54:35;;;;;;;3.92;1.60;;;17.60;95.10;;;;;;5048996;28;20021;-75
2021/08/24 07:57:00;;;;;;;3.40;1.88;;;17.50;94.80;;;;;;5046402;28;20116;-76
2021/08/24 07:59:26;;;;;;;4.00;1.80;;;17.60;94.50;;;;;;5049176;28;20123;-76
2021/08/24 08:01:54;;;;;;;2.38;1.48;;;17.60;94.20;;;;;;5021386;28;20033;-76
2021/08/24 08:04:20;;;;;;;4.85;1.52;;;17.60;94.30;;;;;;5049344;28;20055;-78
2021/08/24 08:06:45;;;;;;;2.85;1.52;;;17.70;94.40;;;;;;5042553;28;20017;-77
2021/08/24 08:09:11;;;;;;;3.47;1.60;;;17.70;94.20;;;;;;5050950;28;20520;-77
2021/08/24 08:11:38;;;;;;;4.18;1.88;;;17.80;93.80;;;;;;5049942;28;20115;-77
2021/08/24 08:14:04;;;;;;;2.97;1.50;;;17.90;93.80;;;;;;5043437;28;20068;-76
2021/08/24 08:16:30;;;;;;;5.25;1.75;;;17.90;93.40;;;;;;5039501;28;20038;-78
2021/08/24 08:18:55;;;;;;;3.53;1.77;;;18.00;93.50;;;;;;5038196;28;20390;-76
2021/08/24 08:21:21;;;;;;;3.97;1.77;;;18.00;93.40;;;;;;5047995;28;20082;-77
2021/08/24 08:23:47;;;;;;;3.25;1.95;;;18.10;93.10;;;;;;5047016;28;20430;-79
2021/08/24 08:26:12;;;;;;;4.10;1.77;;;18.10;93.10;;;;;;5034818;28;20022;-78
2021/08/24 08:28:38;;;;;;;2.72;1.52;;;18.20;92.80;;;;;;5045518;28;20037;-78
2021/08/24 08:31:04;;;;;;;2.60;1.65;;;18.20;92.30;;;;;;5026743;28;20124;-68
2021/08/24 08:33:30;;;;;;;4.78;1.95;;;18.30;92.30;;;;;;5048317;28;20021;-69
2021/08/24 08:35:56;;;;;;;3.58;1.85;;;18.30;91.60;;;;;;5038543;28;20030;-68
2021/08/24 08:38:23;;;;;;;3.13;1.55;;;18.30;91.70;;;;;;5040080;28;20032;-71
2021/08/24 08:41:03;;;;;;;2.63;1.50;;;18.30;91.60;;;;;;5036733;28;20053;-72
2021/08/24 08:43:47;;;;;;;4.05;1.67;;;18.40;91.80;;;;;;5034974;28;20025;-70
2021/08/24 08:46:40;;;;;;;3.55;1.80;;;18.50;91.70;;;;;;5047778;28;20047;-70
2021/08/24 08:49:44;;;;;;;3.72;1.55;;;18.50;91.10;;;;;;5036573;28;20040;-69
2021/08/24 08:52:44;;;;;;;3.17;1.48;;;18.50;90.60;;;;;;5049452;28;20107;-70
2021/08/24 08:55:39;;;;;;;3.10;1.38;;;18.60;90.70;;;;;;5043544;28;20029;-69
2021/08/24 08:58:35;;;;;;;2.90;1.58;;;18.70;90.60;;;;;;5036053;28;20120;-71
2021/08/24 09:01:38;;;;;;;2.80;1.52;;;18.80;90.80;;;;;;5039038;28;20506;-71
2021/08/24 09:04:23;;;;;;;3.60;1.52;;;18.90;90.30;;;;;;5036347;28;20025;-71
2021/08/24 09:06:53;;;;;;;3.97;1.48;;;19.00;90.00;;;;;;5040588;28;20026;-70
2021/08/24 09:09:20;;;;;;;3.42;1.90;;;19.00;89.80;;;;;;5050259;28;20094;-71
2021/08/24 09:11:48;;;;;;;3.45;1.58;;;19.00;88.60;;;;;;5042742;28;20017;-71
2021/08/24 09:14:28;;;;;;;3.08;1.45;;;19.00;87.40;;;;;;5045645;28;20053;-72
2021/08/24 09:17:03;;;;;;;2.70;1.35;;;19.10;88.50;;;;;;5051767;28;20029;-70
2021/08/24 09:19:47;;;;;;;4.47;2.38;;;19.10;88.30;;;;;;5041999;28;20041;-72
2021/08/24 09:22:15;;;;;;;5.22;1.90;;;19.20;89.30;;;;;;5035115;28;20112;-70
2021/08/24 09:24:42;;;;;;;3.85;1.83;;;19.30;88.80;;;;;;5024876;28;20037;-72
2021/08/24 09:27:16;;;;;;;3.53;1.70;;;19.40;88.50;;;;;;5047032;28;20383;-71
2021/08/24 09:29:44;;;;;;;3.72;1.52;;;19.50;88.40;;;;;;5040140;28;20091;-71
2021/08/24 09:32:13;;;;;;;6.13;1.50;;;19.60;87.20;;;;;;5044732;28;20056;-71
2021/08/24 09:34:42;;;;;;;2.35;1.48;;;19.60;86.70;;;;;;5047372;28;20032;-71
2021/08/24 09:37:12;;;;;;;4.32;2.03;;;19.70;86.10;;;;;;5042556;28;20029;-71
2021/08/24 09:39:52;;;;;;;3.38;1.83;;;19.70;82.90;;;;;;5040916;28;20045;-72
2021/08/24 09:42:40;;;;;;;3.55;1.65;;;19.80;81.90;;;;;;5039053;28;20107;-71
2021/08/24 09:45:27;;;;;;;2.97;2.00;;;19.80;80.80;;;;;;5038153;28;20382;-72
2021/08/24 09:47:55;;;;;;;3.30;1.80;;;19.90;81.50;;;;;;5042777;28;20037;-71
2021/08/24 09:50:28;;;;;;;3.50;1.70;;;20.00;81.90;;;;;;5044552;28;20408;-72
2021/08/24 09:52:53;;;;;;;3.42;1.77;;;20.00;80.80;;;;;;5035595;28;20044;-71
2021/08/24 09:55:23;;;;;;;3.45;1.73;;;20.00;79.70;;;;;;5040298;28;20496;-71
2021/08/24 09:58:00;;;;;;;2.38;1.52;;;20.00;81.20;;;;;;5045850;28;20472;-71
2021/08/24 10:00:39;;;;;;;3.90;1.80;;;20.00;78.80;;;;;;5046655;28;20048;-71
2021/08/24 10:03:21;;;;;;;3.28;1.70;;;20.10;78.10;;;;;;5039010;28;20025;-72
2021/08/24 10:05:47;;;;;;;2.65;1.63;;;20.10;78.40;;;;;;5052636;28;20044;-71
2021/08/24 10:08:28;;;;;;;3.15;1.60;;;20.10;77.70;;;;;;5046063;28;20029;-72
2021/08/24 10:11:21;;;;;;;2.72;1.88;;;20.20;79.00;;;;;;5050424;28;20370;-72
2021/08/24 10:13:46;;;;;;;4.55;1.65;;;20.20;78.00;;;;;;5052760;28;20036;-73
2021/08/24 10:16:25;;;;;;;3.83;2.00;;;20.30;77.90;;;;;;5041220;28;23459;-73
2021/08/24 10:19:06;;;;;;;4.05;1.77;;;20.30;77.00;;;;;;5033971;28;20108;-71
2021/08/24 10:21:37;;;;;;;3.67;1.92;;;20.40;74.80;;;;;;5014415;28;20532;-70
2021/08/24 10:24:03;;;;;;;3.38;1.80;;;20.30;75.20;;;;;;5032811;28;20164;-70
2021/08/24 10:26:34;;;;;;;4.20;2.35;;;20.30;75.50;;;;;;5046291;28;20115;-70
2021/08/24 10:29:04;;;;;;;3.50;1.45;;;20.20;75.00;;;;;;5052067;28;20040;-70
2021/08/24 10:31:41;;;;;;;4.32;1.80;;;20.20;74.70;;;;;;5051159;28;20446;-71
2021/08/24 10:34:13;;;;;;;4.03;1.98;;;20.30;75.40;;;;;;5051470;28;20033;-69
2021/08/24 10:36:43;;;;;;;3.55;1.92;;;20.40;74.20;;;;;;5050785;28;20025;-71
2021/08/24 10:39:30;;;;;;;3.70;2.28;;;20.40;73.00;;;;;;5040633;28;20042;-70
2021/08/24 10:42:22;;;;;;;2.67;1.77;;;20.50;73.60;;;;;;5040190;28;20548;-70
2021/08/24 10:44:50;;;;;;;3.25;2.03;;;20.60;73.10;;;;;;5041131;28;20023;-70
2021/08/24 10:47:25;;;;;;;7.32;2.53;;;20.60;72.40;;;;;;5049524;28;20025;-70
2021/08/24 10:49:52;;;;;;;3.40;1.80;;;20.60;71.00;;;;;;5043469;28;20016;-68
2021/08/24 10:52:45;;;;;;;3.75;2.00;;;20.60;70.30;;;;;;5059387;28;20409;-68
2021/08/24 10:55:18;;;;;;;4.32;2.15;;;20.50;71.40;;;;;;5049497;28;20031;-68
2021/08/24 10:58:05;;;;;;;4.07;2.35;;;20.50;72.10;;;;;;5052962;28;20123;-68
2021/08/24 11:00:59;;;;;;;3.58;1.98;;;20.60;72.50;;;;;;5051463;28;20033;-71
2021/08/24 11:03:45;;;;;;;4.85;2.30;;;20.50;69.80;;;;;;5051487;28;20089;-71
2021/08/24 11:06:32;;;;;;;4.47;2.10;;;20.50;69.60;;;;;;5048489;28;20159;-68
2021/08/24 11:09:25;;;;;;;4.70;2.50;;;20.60;69.00;;;;;;5031604;28;20025;-70
2021/08/24 11:12:04;;;;;;;3.75;2.30;;;20.60;69.90;;;;;;5031534;28;20037;-68
2021/08/24 11:15:01;;;;;;;5.80;2.50;;;20.60;70.20;;;;;;5041851;28;20036;-68
2021/08/24 11:17:58;;;;;;;3.97;2.20;;;20.60;68.10;;;;;;5051327;28;20033;-68
2021/08/24 11:20:46;;;;;;;5.93;2.15;;;20.50;68.80;;;;;;5049721;28;20041;-68
2021/08/24 11:23:34;;;;;;;6.63;2.85;;;20.50;67.20;;;;;;5052769;28;20031;-68
2021/08/24 11:26:09;;;;;;;4.70;2.38;;;20.50;66.20;;;;;;5041648;28;20024;-68
2021/08/24 11:29:00;;;;;;;6.63;2.78;;;20.60;64.70;;;;;;5039717;28;20035;-68
2021/08/24 11:31:41;;;;;;;4.93;2.20;;;20.60;63.30;;;;;;5040559;28;20029;-68
2021/08/24 11:34:17;;;;;;;4.15;2.30;;;20.60;64.60;;;;;;5040914;28;20036;-68
2021/08/24 11:37:05;;;;;;;3.95;2.15;;;20.70;64.40;;;;;;5049750;28;20036;-69
2021/08/24 11:39:51;;;;;;;4.55;2.42;;;20.80;64.60;;;;;;5033538;28;20192;-68
2021/08/24 11:42:26;;;;;;;7.65;2.30;;;20.90;63.60;;;;;;5037001;28;20037;-68
2021/08/24 11:44:56;;;;;;;4.05;2.45;;;21.00;61.10;;;;;;5048292;28;20036;-69
2021/08/24 11:47:46;;;;;;;5.20;2.20;;;21.00;61.30;;;;;;5042209;28;20072;-68
2021/08/24 11:50:17;;;;;;;4.18;2.45;;;21.10;60.50;;;;;;5031131;28;20068;-69
2021/08/24 11:52:58;;;;;;;5.82;2.42;;;21.20;58.80;;;;;;5035464;28;20097;-69
2021/08/24 11:55:32;;;;;;;6.20;2.30;;;21.30;57.80;;;;;;5038138;28;20036;-69
2021/08/24 11:58:17;;;;;;;4.05;2.53;;;21.20;56.50;;;;;;5042474;28;20032;-69
2021/08/24 12:00:51;;;;;;;4.75;2.50;;;21.30;57.20;;;;;;5031200;28;20165;-69
2021/08/24 12:03:21;;;;;;;3.58;2.20;;;21.40;57.70;;;;;;5039990;28;20056;-69
2021/08/24 12:05:51;;;;;;;4.53;2.30;;;21.40;58.40;;;;;;5030769;28;20091;-69
2021/08/24 12:08:26;;;;;;;3.67;2.30;;;21.50;58.40;;;;;;5036181;28;20026;-69
2021/08/24 12:10:51;;;;;;;5.88;2.47;;;21.60;58.70;;;;;;5034442;28;20031;-70
2021/08/24 12:13:29;;;;;;;5.53;2.90;;;21.60;57.10;;;;;;5046497;28;20021;-75
2021/08/24 12:16:21;;;;;;;4.47;2.55;;;21.70;58.40;;;;;;5041890;28;20057;-71
2021/08/24 12:19:29;;;;;;;4.43;2.80;;;21.80;58.60;;;;;;5039875;28;20112;-71
2021/08/24 12:22:25;;;;;;;4.85;3.05;;;21.90;57.50;;;;;;5034344;28;20114;-71
2021/08/24 12:25:02;;;;;;;6.82;3.33;;;22.00;59.00;;;;;;5052941;28;20024;-70
2021/08/24 12:27:27;;;;;;;5.80;3.00;;;22.10;58.90;;;;;;5042602;28;20032;-73
2021/08/24 12:30:15;;;;;;;5.90;3.08;;;22.00;57.50;;;;;;5054613;28;20373;-70
2021/08/24 12:32:42;;;;;;;6.60;3.15;;;21.80;57.40;;;;;;5046000;28;20198;-69
2021/08/24 12:35:28;;;;;;;6.18;3.25;;;21.70;57.70;;;;;;5046492;28;20036;-72
2021/08/24 12:37:57;;;;;;;5.32;3.42;;;21.60;57.90;;;;;;5040585;28;20470;-68
2021/08/24 12:40:53;;;;;;;6.07;3.17;;;21.60;58.00;;;;;;5036309;28;20116;-70
2021/08/24 12:43:19;;;;;;;5.75;3.10;;;21.60;58.10;;;;;;5036458;28;20129;-71
2021/08/24 12:45:46;;;;;;;5.40;3.05;;;21.60;58.50;;;;;;5037640;28;20113;-71
2021/08/24 12:48:11;;;;;;;6.20;3.28;;;21.70;58.60;;;;;;5041896;28;20049;-70
2021/08/24 12:50:37;;;;;;;4.60;2.72;;;21.80;58.50;;;;;;5027481;28;20528;-70
2021/08/24 12:53:21;;;;;;;5.10;3.00;;;21.80;59.60;;;;;;5016420;28;20063;-70
2021/08/24 12:55:48;;;;;;;6.68;3.75;;;21.80;59.10;;;;;;5029170;28;20029;-69
2021/08/24 12:58:19;;;;;;;5.90;2.95;;;21.70;58.40;;;;;;5015241;28;20044;-69
2021/08/24 13:01:22;;;;;;;6.32;3.38;;;21.60;58.40;;;;;;5022240;28;20144;-69
2021/08/24 13:04:05;;;;;;;5.28;2.90;;;21.50;57.20;;;;;;5013702;28;20044;-69
2021/08/24 13:06:37;;;;;;;5.60;2.95;;;21.60;58.30;;;;;;5016227;28;20021;-69
2021/08/24 13:09:26;;;;;;;5.60;3.00;;;21.70;58.50;;;;;;5014369;28;20029;-70
2021/08/24 13:12:03;;;;;;;6.32;3.45;;;21.80;58.40;;;;;;5014890;28;20029;-70
2021/08/24 13:14:57;;;;;;;6.35;3.28;;;21.90;58.00;;;;;;5029590;28;20038;-70